sensor_id;sensor_type;location;lat;lon;timestamp;temperature;humidity
20319;DHT22;10317;47.254;11.314;2022-12-05T00:01:54;1.10;99.90
20319;DHT22;10317;47.254;11.314;2022-12-05T00:04:19;1.10;99.90
20319;DHT22;10317;47.254;11.314;2022-12-05T00:06:45;1.00;99.90
20319;DHT22;10317;47.254;11.314;2022-12-05T00:09:13;1.00;99.90
20319;DHT22;10317;47.254;11.314;2022-12-05T00:11:40;1.10;99.90
20319;DHT22;10317;47.254;11.314;2022-12-05T00:14:07;1.10;99.90
20319;DHT22;10317;47.254;11.314;2022-12-05T00:16:35;1.00;99.90
20319;DHT22;10317;47.254;11.314;2022-12-05T00:19:03;1.00;99.90
20319;DHT22;10317;47.254;11.314;2022-12-05T00:21:30;1.20;99.90
20319;DHT22;10317;47.254;11.314;2022-12-05T00:23:57;1.10;99.90
20319;DHT22;10317;47.254;11.314;2022-12-05T00:26:24;1.10;99.90
20319;DHT22;10317;47.254;11.314;2022-12-05T00:28:51;1.20;99.90
20319;DHT22;10317;47.254;11.314;2022-12-05T00:31:19;1.20;99.90
20319;DHT22;10317;47.254;11.314;2022-12-05T00:33:45;1.20;99.90
20319;DHT22;10317;47.254;11.314;2022-12-05T00:36:15;1.20;99.90
20319;DHT22;10317;47.254;11.314;2022-12-05T00:38:41;1.30;99.90
20319;DHT22;10317;47.254;11.314;2022-12-05T00:41:14;1.20;99.90
20319;DHT22;10317;47.254;11.314;2022-12-05T00:43:41;1.20;99.90
20319;DHT22;10317;47.254;11.314;2022-12-05T00:46:19;1.20;99.90
20319;DHT22;10317;47.254;11.314;2022-12-05T00:48:46;1.10;99.90
20319;DHT22;10317;47.254;11.314;2022-12-05T00:51:18;1.10;99.90
20319;DHT22;10317;47.254;11.314;2022-12-05T00:53:45;1.10;99.90
20319;DHT22;10317;47.254;11.314;2022-12-05T00:56:23;1.20;99.90
20319;DHT22;10317;47.254;11.314;2022-12-05T00:58:51;1.50;99.90
20319;DHT22;10317;47.254;11.314;2022-12-05T01:01:27;1.50;99.90
20319;DHT22;10317;47.254;11.314;2022-12-05T01:03:55;1.60;99.90
20319;DHT22;10317;47.254;11.314;2022-12-05T01:06:22;1.60;99.90
20319;DHT22;10317;47.254;11.314;2022-12-05T01:08:48;1.60;99.90
20319;DHT22;10317;47.254;11.314;2022-12-05T01:11:18;1.50;99.90
20319;DHT22;10317;47.254;11.314;2022-12-05T01:13:44;1.50;99.90
20319;DHT22;10317;47.254;11.314;2022-12-05T01:16:22;1.50;99.90
20319;DHT22;10317;47.254;11.314;2022-12-05T01:18:47;1.50;99.90
20319;DHT22;10317;47.254;11.314;2022-12-05T01:21:13;1.50;99.90
20319;DHT22;10317;47.254;11.314;2022-12-05T01:23:39;1.60;99.90
20319;DHT22;10317;47.254;11.314;2022-12-05T01:26:10;1.60;99.90
20319;DHT22;10317;47.254;11.314;2022-12-05T01:28:37;1.60;99.90
20319;DHT22;10317;47.254;11.314;2022-12-05T01:31:09;1.70;99.90
20319;DHT22;10317;47.254;11.314;2022-12-05T01:33:37;1.60;99.90
20319;DHT22;10317;47.254;11.314;2022-12-05T01:36:03;1.60;99.90
20319;DHT22;10317;47.254;11.314;2022-12-05T01:38:29;1.60;99.90
20319;DHT22;10317;47.254;11.314;2022-12-05T01:41:00;1.60;99.90
20319;DHT22;10317;47.254;11.314;2022-12-05T01:43:26;1.60;99.90
20319;DHT22;10317;47.254;11.314;2022-12-05T01:45:52;1.60;99.90
20319;DHT22;10317;47.254;11.314;2022-12-05T01:48:22;1.60;99.90
20319;DHT22;10317;47.254;11.314;2022-12-05T01:50:49;1.60;99.90
20319;DHT22;10317;47.254;11.314;2022-12-05T01:53:15;1.60;99.90
20319;DHT22;10317;47.254;11.314;2022-12-05T01:55:44;1.60;99.90
20319;DHT22;10317;47.254;11.314;2022-12-05T01:58:10;1.70;99.90
20319;DHT22;10317;47.254;11.314;2022-12-05T02:00:38;1.70;99.90
20319;DHT22;10317;47.254;11.314;2022-12-05T02:03:07;1.70;99.90
20319;DHT22;10317;47.254;11.314;2022-12-05T02:05:35;1.70;99.90
20319;DHT22;10317;47.254;11.314;2022-12-05T02:08:06;1.80;99.90
20319;DHT22;10317;47.254;11.314;2022-12-05T02:10:50;1.90;99.90
20319;DHT22;10317;47.254;11.314;2022-12-05T02:24:40;2.20;99.90
20319;DHT22;10317;47.254;11.314;2022-12-05T02:27:18;2.20;99.90
20319;DHT22;10317;47.254;11.314;2022-12-05T02:30:09;2.30;99.90
20319;DHT22;10317;47.254;11.314;2022-12-05T02:37:58;2.20;99.90
20319;DHT22;10317;47.254;11.314;2022-12-05T02:40:42;2.20;99.90
20319;DHT22;10317;47.254;11.314;2022-12-05T02:43:23;2.30;99.90
20319;DHT22;10317;47.254;11.314;2022-12-05T02:45:57;2.30;99.90
20319;DHT22;10317;47.254;11.314;2022-12-05T02:48:27;2.20;99.90
20319;DHT22;10317;47.254;11.314;2022-12-05T02:50:56;2.30;99.90
20319;DHT22;10317;47.254;11.314;2022-12-05T02:53:24;2.30;99.90
20319;DHT22;10317;47.254;11.314;2022-12-05T02:55:52;2.40;99.90
20319;DHT22;10317;47.254;11.314;2022-12-05T02:58:23;2.40;99.90
20319;DHT22;10317;47.254;11.314;2022-12-05T03:00:54;2.30;99.90
20319;DHT22;10317;47.254;11.314;2022-12-05T03:03:21;2.40;99.90
20319;DHT22;10317;47.254;11.314;2022-12-05T03:08:46;2.40;99.90
20319;DHT22;10317;47.254;11.314;2022-12-05T03:11:13;2.40;99.90
20319;DHT22;10317;47.254;11.314;2022-12-05T03:13:52;2.40;99.90
20319;DHT22;10317;47.254;11.314;2022-12-05T03:16:56;2.40;99.90
20319;DHT22;10317;47.254;11.314;2022-12-05T03:19:35;2.40;99.90
20319;DHT22;10317;47.254;11.314;2022-12-05T03:22:34;2.50;99.90
20319;DHT22;10317;47.254;11.314;2022-12-05T03:25:03;2.60;99.90
20319;DHT22;10317;47.254;11.314;2022-12-05T03:30:08;2.60;99.90
20319;DHT22;10317;47.254;11.314;2022-12-05T03:35:29;2.60;99.90
20319;DHT22;10317;47.254;11.314;2022-12-05T03:38:20;2.60;99.90
20319;DHT22;10317;47.254;11.314;2022-12-05T03:40:59;2.70;99.90
20319;DHT22;10317;47.254;11.314;2022-12-05T03:51:56;2.70;99.90
20319;DHT22;10317;47.254;11.314;2022-12-05T03:54:25;2.70;99.90
20319;DHT22;10317;47.254;11.314;2022-12-05T03:57:00;2.70;99.90
20319;DHT22;10317;47.254;11.314;2022-12-05T03:59:40;2.70;99.90
20319;DHT22;10317;47.254;11.314;2022-12-05T04:02:16;2.60;99.90
20319;DHT22;10317;47.254;11.314;2022-12-05T04:04:52;2.60;99.90
20319;DHT22;10317;47.254;11.314;2022-12-05T04:07:19;2.70;99.90
20319;DHT22;10317;47.254;11.314;2022-12-05T04:09:51;2.70;99.90
20319;DHT22;10317;47.254;11.314;2022-12-05T04:12:22;2.70;99.90
20319;DHT22;10317;47.254;11.314;2022-12-05T04:14:52;2.80;99.90
20319;DHT22;10317;47.254;11.314;2022-12-05T04:17:59;2.70;99.90
20319;DHT22;10317;47.254;11.314;2022-12-05T04:23:09;2.80;99.90
20319;DHT22;10317;47.254;11.314;2022-12-05T04:25:43;2.80;99.90
20319;DHT22;10317;47.254;11.314;2022-12-05T04:36:15;2.90;99.90
20319;DHT22;10317;47.254;11.314;2022-12-05T04:41:12;2.90;99.90
20319;DHT22;10317;47.254;11.314;2022-12-05T04:43:41;2.90;99.90
20319;DHT22;10317;47.254;11.314;2022-12-05T04:46:10;2.90;99.90
20319;DHT22;10317;47.254;11.314;2022-12-05T04:48:40;2.90;99.90
20319;DHT22;10317;47.254;11.314;2022-12-05T04:51:11;2.80;99.90
20319;DHT22;10317;47.254;11.314;2022-12-05T04:53:39;2.80;99.90
20319;DHT22;10317;47.254;11.314;2022-12-05T04:56:06;2.80;99.90
20319;DHT22;10317;47.254;11.314;2022-12-05T04:58:34;2.70;99.90
20319;DHT22;10317;47.254;11.314;2022-12-05T05:03:39;2.70;99.90
20319;DHT22;10317;47.254;11.314;2022-12-05T05:06:06;2.70;99.90
20319;DHT22;10317;47.254;11.314;2022-12-05T05:08:32;2.70;99.90
20319;DHT22;10317;47.254;11.314;2022-12-05T05:11:14;2.60;99.90
20319;DHT22;10317;47.254;11.314;2022-12-05T05:13:40;2.60;99.90
20319;DHT22;10317;47.254;11.314;2022-12-05T05:16:06;2.60;99.90
20319;DHT22;10317;47.254;11.314;2022-12-05T05:18:32;2.50;99.90
20319;DHT22;10317;47.254;11.314;2022-12-05T05:20:58;2.50;99.90
20319;DHT22;10317;47.254;11.314;2022-12-05T05:23:24;2.50;99.90
20319;DHT22;10317;47.254;11.314;2022-12-05T05:25:55;2.50;99.90
20319;DHT22;10317;47.254;11.314;2022-12-05T05:28:21;2.50;99.90
20319;DHT22;10317;47.254;11.314;2022-12-05T05:30:47;2.50;99.90
20319;DHT22;10317;47.254;11.314;2022-12-05T05:33:13;2.50;99.90
20319;DHT22;10317;47.254;11.314;2022-12-05T05:35:39;2.50;99.90
20319;DHT22;10317;47.254;11.314;2022-12-05T05:38:05;2.50;99.90
20319;DHT22;10317;47.254;11.314;2022-12-05T05:40:34;2.50;99.90
20319;DHT22;10317;47.254;11.314;2022-12-05T05:43:00;2.50;99.90
20319;DHT22;10317;47.254;11.314;2022-12-05T05:45:26;2.50;99.90
20319;DHT22;10317;47.254;11.314;2022-12-05T05:47:52;2.50;99.90
20319;DHT22;10317;47.254;11.314;2022-12-05T05:50:17;2.50;99.90
20319;DHT22;10317;47.254;11.314;2022-12-05T05:52:43;2.50;99.90
20319;DHT22;10317;47.254;11.314;2022-12-05T05:55:09;2.50;99.90
20319;DHT22;10317;47.254;11.314;2022-12-05T05:57:35;2.40;99.90
20319;DHT22;10317;47.254;11.314;2022-12-05T06:00:04;2.40;99.90
20319;DHT22;10317;47.254;11.314;2022-12-05T06:02:32;2.40;99.90
20319;DHT22;10317;47.254;11.314;2022-12-05T06:05:01;2.40;99.90
20319;DHT22;10317;47.254;11.314;2022-12-05T06:07:28;2.40;99.90
20319;DHT22;10317;47.254;11.314;2022-12-05T06:09:54;2.50;99.90
20319;DHT22;10317;47.254;11.314;2022-12-05T06:12:19;2.50;99.90
20319;DHT22;10317;47.254;11.314;2022-12-05T06:14:49;2.50;99.90
20319;DHT22;10317;47.254;11.314;2022-12-05T06:17:15;2.50;99.90
20319;DHT22;10317;47.254;11.314;2022-12-05T06:19:41;2.50;99.90
20319;DHT22;10317;47.254;11.314;2022-12-05T06:22:06;2.50;99.90
20319;DHT22;10317;47.254;11.314;2022-12-05T06:24:32;2.50;99.90
20319;DHT22;10317;47.254;11.314;2022-12-05T06:26:58;2.40;99.90
20319;DHT22;10317;47.254;11.314;2022-12-05T06:29:23;2.30;99.90
20319;DHT22;10317;47.254;11.314;2022-12-05T06:31:49;2.30;99.90
20319;DHT22;10317;47.254;11.314;2022-12-05T06:34:15;2.30;99.90
20319;DHT22;10317;47.254;11.314;2022-12-05T06:36:41;2.20;99.90
20319;DHT22;10317;47.254;11.314;2022-12-05T06:39:07;2.10;99.90
20319;DHT22;10317;47.254;11.314;2022-12-05T06:41:33;2.10;99.90
20319;DHT22;10317;47.254;11.314;2022-12-05T06:43:59;2.10;99.90
20319;DHT22;10317;47.254;11.314;2022-12-05T06:46:25;2.00;99.90
20319;DHT22;10317;47.254;11.314;2022-12-05T06:48:52;2.00;99.90
20319;DHT22;10317;47.254;11.314;2022-12-05T06:51:18;2.00;99.90
20319;DHT22;10317;47.254;11.314;2022-12-05T06:53:44;1.90;99.90
20319;DHT22;10317;47.254;11.314;2022-12-05T06:56:13;1.80;99.90
20319;DHT22;10317;47.254;11.314;2022-12-05T06:58:43;1.80;99.90
20319;DHT22;10317;47.254;11.314;2022-12-05T07:01:18;1.80;99.90
20319;DHT22;10317;47.254;11.314;2022-12-05T07:04:04;1.70;99.90
20319;DHT22;10317;47.254;11.314;2022-12-05T07:06:32;1.60;99.90
20319;DHT22;10317;47.254;11.314;2022-12-05T07:08:58;1.60;99.90
20319;DHT22;10317;47.254;11.314;2022-12-05T07:11:32;1.50;99.90
20319;DHT22;10317;47.254;11.314;2022-12-05T07:13:58;1.50;99.90
20319;DHT22;10317;47.254;11.314;2022-12-05T07:16:24;1.50;99.90
20319;DHT22;10317;47.254;11.314;2022-12-05T07:18:50;1.50;99.90
20319;DHT22;10317;47.254;11.314;2022-12-05T07:21:16;1.40;99.90
20319;DHT22;10317;47.254;11.314;2022-12-05T07:23:45;1.40;99.90
20319;DHT22;10317;47.254;11.314;2022-12-05T07:26:14;1.40;99.90
20319;DHT22;10317;47.254;11.314;2022-12-05T07:28:41;1.40;99.90
20319;DHT22;10317;47.254;11.314;2022-12-05T07:31:09;1.30;99.90
20319;DHT22;10317;47.254;11.314;2022-12-05T07:37:34;1.40;99.90
20319;DHT22;10317;47.254;11.314;2022-12-05T07:51:39;1.40;99.90
20319;DHT22;10317;47.254;11.314;2022-12-05T07:54:34;1.40;99.90
20319;DHT22;10317;47.254;11.314;2022-12-05T07:57:17;1.40;99.90
20319;DHT22;10317;47.254;11.314;2022-12-05T07:59:43;1.40;99.90
20319;DHT22;10317;47.254;11.314;2022-12-05T08:02:09;1.40;99.90
20319;DHT22;10317;47.254;11.314;2022-12-05T08:04:35;1.40;99.90
20319;DHT22;10317;47.254;11.314;2022-12-05T08:07:01;1.40;99.90
20319;DHT22;10317;47.254;11.314;2022-12-05T08:09:27;1.50;99.90
20319;DHT22;10317;47.254;11.314;2022-12-05T08:11:52;1.50;99.90
20319;DHT22;10317;47.254;11.314;2022-12-05T08:14:18;1.60;99.90
20319;DHT22;10317;47.254;11.314;2022-12-05T08:16:44;1.60;99.90
20319;DHT22;10317;47.254;11.314;2022-12-05T08:19:14;1.60;99.90
20319;DHT22;10317;47.254;11.314;2022-12-05T08:21:41;1.70;99.90
20319;DHT22;10317;47.254;11.314;2022-12-05T08:24:07;1.80;99.90
20319;DHT22;10317;47.254;11.314;2022-12-05T08:26:35;1.80;99.90
20319;DHT22;10317;47.254;11.314;2022-12-05T08:29:06;1.80;99.90
20319;DHT22;10317;47.254;11.314;2022-12-05T08:31:35;1.90;99.90
20319;DHT22;10317;47.254;11.314;2022-12-05T08:34:01;1.90;99.90
20319;DHT22;10317;47.254;11.314;2022-12-05T08:36:28;1.90;99.90
20319;DHT22;10317;47.254;11.314;2022-12-05T08:38:59;2.00;99.90
20319;DHT22;10317;47.254;11.314;2022-12-05T08:41:26;2.00;99.90
20319;DHT22;10317;47.254;11.314;2022-12-05T08:44:00;2.10;99.90
20319;DHT22;10317;47.254;11.314;2022-12-05T08:46:34;2.10;99.90
20319;DHT22;10317;47.254;11.314;2022-12-05T08:49:01;2.20;99.90
20319;DHT22;10317;47.254;11.314;2022-12-05T08:51:27;2.20;99.90
20319;DHT22;10317;47.254;11.314;2022-12-05T08:53:53;2.30;99.90
20319;DHT22;10317;47.254;11.314;2022-12-05T08:56:21;2.30;99.90
20319;DHT22;10317;47.254;11.314;2022-12-05T08:58:47;2.40;99.90
20319;DHT22;10317;47.254;11.314;2022-12-05T09:01:18;2.50;99.90
20319;DHT22;10317;47.254;11.314;2022-12-05T09:03:44;2.50;99.90
20319;DHT22;10317;47.254;11.314;2022-12-05T09:06:22;2.60;99.90
20319;DHT22;10317;47.254;11.314;2022-12-05T09:08:52;2.60;99.90
20319;DHT22;10317;47.254;11.314;2022-12-05T09:55:13;4.30;99.90
20319;DHT22;10317;47.254;11.314;2022-12-05T09:58:54;4.40;99.90
20319;DHT22;10317;47.254;11.314;2022-12-05T10:17:30;4.30;99.90
20319;DHT22;10317;47.254;11.314;2022-12-05T10:40:15;4.70;99.90
20319;DHT22;10317;47.254;11.314;2022-12-05T10:43:09;4.70;99.90
20319;DHT22;10317;47.254;11.314;2022-12-05T10:45:54;4.90;99.90
20319;DHT22;10317;47.254;11.314;2022-12-05T10:48:36;4.90;99.90
20319;DHT22;10317;47.254;11.314;2022-12-05T10:54:50;5.00;99.90
20319;DHT22;10317;47.254;11.314;2022-12-05T11:01:19;5.10;99.90
20319;DHT22;10317;47.254;11.314;2022-12-05T11:03:55;5.00;99.90
20319;DHT22;10317;47.254;11.314;2022-12-05T11:07:02;5.10;99.90
20319;DHT22;10317;47.254;11.314;2022-12-05T11:09:56;5.00;99.90
20319;DHT22;10317;47.254;11.314;2022-12-05T11:16:26;5.00;99.90
20319;DHT22;10317;47.254;11.314;2022-12-05T11:23:04;5.10;99.90
20319;DHT22;10317;47.254;11.314;2022-12-05T11:26:42;5.10;99.90
20319;DHT22;10317;47.254;11.314;2022-12-05T11:32:21;5.50;99.90
20319;DHT22;10317;47.254;11.314;2022-12-05T11:38:48;5.60;99.90
20319;DHT22;10317;47.254;11.314;2022-12-05T11:53:09;5.80;99.90
20319;DHT22;10317;47.254;11.314;2022-12-05T11:55:58;5.70;99.90
20319;DHT22;10317;47.254;11.314;2022-12-05T12:29:37;6.10;99.90
20319;DHT22;10317;47.254;11.314;2022-12-05T12:32:10;6.10;99.90
20319;DHT22;10317;47.254;11.314;2022-12-05T12:35:08;6.00;99.90
20319;DHT22;10317;47.254;11.314;2022-12-05T12:40:21;6.00;99.90
20319;DHT22;10317;47.254;11.314;2022-12-05T12:48:33;5.80;99.90
20319;DHT22;10317;47.254;11.314;2022-12-05T12:51:08;5.80;99.90
20319;DHT22;10317;47.254;11.314;2022-12-05T13:01:55;5.70;99.90
20319;DHT22;10317;47.254;11.314;2022-12-05T13:04:28;5.60;99.90
20319;DHT22;10317;47.254;11.314;2022-12-05T13:07:09;5.60;99.90
20319;DHT22;10317;47.254;11.314;2022-12-05T13:09:43;5.60;99.90
20319;DHT22;10317;47.254;11.314;2022-12-05T13:12:17;5.60;99.90
20319;DHT22;10317;47.254;11.314;2022-12-05T13:14:52;5.50;99.90
20319;DHT22;10317;47.254;11.314;2022-12-05T13:17:20;5.50;99.90
20319;DHT22;10317;47.254;11.314;2022-12-05T13:19:49;5.50;99.90
20319;DHT22;10317;47.254;11.314;2022-12-05T13:22:20;5.40;99.90
20319;DHT22;10317;47.254;11.314;2022-12-05T13:24:49;5.50;99.90
20319;DHT22;10317;47.254;11.314;2022-12-05T13:27:18;5.40;99.90
20319;DHT22;10317;47.254;11.314;2022-12-05T13:30:00;5.40;99.90
20319;DHT22;10317;47.254;11.314;2022-12-05T13:32:36;5.40;99.90
20319;DHT22;10317;47.254;11.314;2022-12-05T13:35:18;5.40;99.90
20319;DHT22;10317;47.254;11.314;2022-12-05T13:38:03;5.30;99.90
20319;DHT22;10317;47.254;11.314;2022-12-05T13:40:51;5.30;99.90
20319;DHT22;10317;47.254;11.314;2022-12-05T13:43:49;5.30;99.90
20319;DHT22;10317;47.254;11.314;2022-12-05T13:46:26;5.30;99.90
20319;DHT22;10317;47.254;11.314;2022-12-05T13:49:31;5.40;99.90
20319;DHT22;10317;47.254;11.314;2022-12-05T13:52:27;5.40;99.90
20319;DHT22;10317;47.254;11.314;2022-12-05T13:55:00;5.40;99.90
20319;DHT22;10317;47.254;11.314;2022-12-05T14:05:34;5.30;99.90
20319;DHT22;10317;47.254;11.314;2022-12-05T14:15:51;5.10;99.90
20319;DHT22;10317;47.254;11.314;2022-12-05T14:18:39;5.10;99.90
20319;DHT22;10317;47.254;11.314;2022-12-05T14:24:22;5.00;99.90
20319;DHT22;10317;47.254;11.314;2022-12-05T14:27:41;5.00;99.90
20319;DHT22;10317;47.254;11.314;2022-12-05T14:32:38;4.90;99.90
20319;DHT22;10317;47.254;11.314;2022-12-05T14:38:28;4.80;99.90
20319;DHT22;10317;47.254;11.314;2022-12-05T14:41:40;4.70;99.90
20319;DHT22;10317;47.254;11.314;2022-12-05T14:43:52;4.70;99.90
20319;DHT22;10317;47.254;11.314;2022-12-05T14:46:31;4.70;99.90
20319;DHT22;10317;47.254;11.314;2022-12-05T14:52:09;4.50;99.90
20319;DHT22;10317;47.254;11.314;2022-12-05T14:54:37;4.50;99.90
20319;DHT22;10317;47.254;11.314;2022-12-05T14:57:13;4.50;99.90
20319;DHT22;10317;47.254;11.314;2022-12-05T14:59:48;4.40;99.90
20319;DHT22;10317;47.254;11.314;2022-12-05T15:02:23;4.30;99.90
20319;DHT22;10317;47.254;11.314;2022-12-05T15:05:26;4.30;99.90
20319;DHT22;10317;47.254;11.314;2022-12-05T15:07:58;4.20;99.90
20319;DHT22;10317;47.254;11.314;2022-12-05T15:10:32;4.10;99.90
20319;DHT22;10317;47.254;11.314;2022-12-05T15:21:35;3.90;99.90
20319;DHT22;10317;47.254;11.314;2022-12-05T15:24:17;3.90;99.90
20319;DHT22;10317;47.254;11.314;2022-12-05T15:26:56;3.90;99.90
20319;DHT22;10317;47.254;11.314;2022-12-05T15:29:26;3.90;99.90
20319;DHT22;10317;47.254;11.314;2022-12-05T15:31:59;3.80;99.90
20319;DHT22;10317;47.254;11.314;2022-12-05T15:35:01;3.70;99.90
20319;DHT22;10317;47.254;11.314;2022-12-05T15:37:54;3.50;99.90
20319;DHT22;10317;47.254;11.314;2022-12-05T15:40:23;3.50;99.90
20319;DHT22;10317;47.254;11.314;2022-12-05T15:42:56;3.50;99.90
20319;DHT22;10317;47.254;11.314;2022-12-05T15:45:28;3.50;99.90
20319;DHT22;10317;47.254;11.314;2022-12-05T15:50:36;3.50;99.90
20319;DHT22;10317;47.254;11.314;2022-12-05T16:01:47;3.40;99.90
20319;DHT22;10317;47.254;11.314;2022-12-05T16:04:38;3.40;99.90
20319;DHT22;10317;47.254;11.314;2022-12-05T16:07:15;3.40;99.90
20319;DHT22;10317;47.254;11.314;2022-12-05T16:09:47;3.40;99.90
20319;DHT22;10317;47.254;11.314;2022-12-05T16:12:37;3.30;99.90
20319;DHT22;10317;47.254;11.314;2022-12-05T16:15:36;3.30;99.90
20319;DHT22;10317;47.254;11.314;2022-12-05T16:18:29;3.30;99.90
20319;DHT22;10317;47.254;11.314;2022-12-05T16:21:31;3.00;99.90
20319;DHT22;10317;47.254;11.314;2022-12-05T16:24:39;3.00;99.90
20319;DHT22;10317;47.254;11.314;2022-12-05T16:27:37;3.00;99.90
20319;DHT22;10317;47.254;11.314;2022-12-05T16:31:12;3.00;99.90
20319;DHT22;10317;47.254;11.314;2022-12-05T16:33:43;3.00;99.90
20319;DHT22;10317;47.254;11.314;2022-12-05T16:36:36;3.00;99.90
20319;DHT22;10317;47.254;11.314;2022-12-05T16:39:14;3.00;99.90
20319;DHT22;10317;47.254;11.314;2022-12-05T16:41:50;3.10;99.90
20319;DHT22;10317;47.254;11.314;2022-12-05T16:47:54;3.00;99.90
20319;DHT22;10317;47.254;11.314;2022-12-05T16:50:33;3.00;99.90
20319;DHT22;10317;47.254;11.314;2022-12-05T16:55:54;3.00;99.90
20319;DHT22;10317;47.254;11.314;2022-12-05T16:58:24;3.00;99.90
20319;DHT22;10317;47.254;11.314;2022-12-05T17:00:51;3.00;99.90
20319;DHT22;10317;47.254;11.314;2022-12-05T17:03:23;2.90;99.90
20319;DHT22;10317;47.254;11.314;2022-12-05T17:05:48;2.90;99.90
20319;DHT22;10317;47.254;11.314;2022-12-05T17:08:42;2.90;99.90
20319;DHT22;10317;47.254;11.314;2022-12-05T18:08:56;2.40;99.90
20319;DHT22;10317;47.254;11.314;2022-12-05T18:11:22;2.40;99.90
20319;DHT22;10317;47.254;11.314;2022-12-05T19:35:38;2.10;99.90
20319;DHT22;10317;47.254;11.314;2022-12-05T19:38:03;2.10;99.90
20319;DHT22;10317;47.254;11.314;2022-12-05T19:40:29;2.10;99.90
20319;DHT22;10317;47.254;11.314;2022-12-05T19:42:55;2.00;99.90
20319;DHT22;10317;47.254;11.314;2022-12-05T19:45:21;2.10;99.90
20319;DHT22;10317;47.254;11.314;2022-12-05T19:47:47;2.00;99.90
20319;DHT22;10317;47.254;11.314;2022-12-05T19:50:12;2.10;99.90
20319;DHT22;10317;47.254;11.314;2022-12-05T19:52:38;2.10;99.90
20319;DHT22;10317;47.254;11.314;2022-12-05T19:55:04;2.00;99.90
20319;DHT22;10317;47.254;11.314;2022-12-05T19:57:29;2.00;99.90
20319;DHT22;10317;47.254;11.314;2022-12-05T19:59:55;2.00;99.90
20319;DHT22;10317;47.254;11.314;2022-12-05T20:02:21;2.00;99.90
20319;DHT22;10317;47.254;11.314;2022-12-05T20:04:48;2.00;99.90
20319;DHT22;10317;47.254;11.314;2022-12-05T20:07:14;2.00;99.90
20319;DHT22;10317;47.254;11.314;2022-12-05T20:09:39;2.00;99.90
20319;DHT22;10317;47.254;11.314;2022-12-05T20:12:05;2.00;99.90
20319;DHT22;10317;47.254;11.314;2022-12-05T20:14:31;2.00;99.90
20319;DHT22;10317;47.254;11.314;2022-12-05T20:16:58;2.00;99.90
20319;DHT22;10317;47.254;11.314;2022-12-05T20:19:23;2.00;99.90
20319;DHT22;10317;47.254;11.314;2022-12-05T20:21:49;2.00;99.90
20319;DHT22;10317;47.254;11.314;2022-12-05T20:24:15;1.90;99.90
20319;DHT22;10317;47.254;11.314;2022-12-05T20:26:43;1.90;99.90
20319;DHT22;10317;47.254;11.314;2022-12-05T20:29:09;1.90;99.90
20319;DHT22;10317;47.254;11.314;2022-12-05T20:31:40;1.90;99.90
20319;DHT22;10317;47.254;11.314;2022-12-05T20:34:08;1.90;99.90
20319;DHT22;10317;47.254;11.314;2022-12-05T20:36:55;1.90;99.90
20319;DHT22;10317;47.254;11.314;2022-12-05T20:39:21;1.90;99.90
20319;DHT22;10317;47.254;11.314;2022-12-05T20:41:49;1.90;99.90
20319;DHT22;10317;47.254;11.314;2022-12-05T20:44:17;1.90;99.90
20319;DHT22;10317;47.254;11.314;2022-12-05T20:46:48;1.90;99.90
20319;DHT22;10317;47.254;11.314;2022-12-05T20:49:17;1.90;99.90
20319;DHT22;10317;47.254;11.314;2022-12-05T20:51:45;1.90;99.90
20319;DHT22;10317;47.254;11.314;2022-12-05T20:54:12;1.90;99.90
20319;DHT22;10317;47.254;11.314;2022-12-05T20:56:39;1.90;99.90
20319;DHT22;10317;47.254;11.314;2022-12-05T20:59:06;1.90;99.90
20319;DHT22;10317;47.254;11.314;2022-12-05T21:01:36;1.90;99.90
20319;DHT22;10317;47.254;11.314;2022-12-05T21:04:03;2.00;99.90
20319;DHT22;10317;47.254;11.314;2022-12-05T21:06:34;2.00;99.90
20319;DHT22;10317;47.254;11.314;2022-12-05T21:09:04;2.00;99.90
20319;DHT22;10317;47.254;11.314;2022-12-05T21:11:30;2.00;99.90
20319;DHT22;10317;47.254;11.314;2022-12-05T21:13:57;2.00;99.90
20319;DHT22;10317;47.254;11.314;2022-12-05T21:16:25;2.00;99.90
20319;DHT22;10317;47.254;11.314;2022-12-05T21:18:54;2.00;99.90
20319;DHT22;10317;47.254;11.314;2022-12-05T21:21:24;2.00;99.90
20319;DHT22;10317;47.254;11.314;2022-12-05T21:23:53;2.00;99.90
20319;DHT22;10317;47.254;11.314;2022-12-05T21:26:20;2.10;99.90
20319;DHT22;10317;47.254;11.314;2022-12-05T21:28:46;2.10;99.90
20319;DHT22;10317;47.254;11.314;2022-12-05T21:31:33;2.10;99.90
20319;DHT22;10317;47.254;11.314;2022-12-05T21:34:02;2.10;99.90
20319;DHT22;10317;47.254;11.314;2022-12-05T21:36:31;2.10;99.90
20319;DHT22;10317;47.254;11.314;2022-12-05T21:38:57;2.10;99.90
20319;DHT22;10317;47.254;11.314;2022-12-05T21:41:24;2.10;99.90
20319;DHT22;10317;47.254;11.314;2022-12-05T21:43:50;2.10;99.90
20319;DHT22;10317;47.254;11.314;2022-12-05T21:46:16;2.10;99.90
20319;DHT22;10317;47.254;11.314;2022-12-05T21:48:42;2.10;99.90
20319;DHT22;10317;47.254;11.314;2022-12-05T21:51:08;2.10;99.90
20319;DHT22;10317;47.254;11.314;2022-12-05T21:53:34;2.10;99.90
20319;DHT22;10317;47.254;11.314;2022-12-05T21:56:02;2.10;99.90
20319;DHT22;10317;47.254;11.314;2022-12-05T21:58:28;2.10;99.90
20319;DHT22;10317;47.254;11.314;2022-12-05T22:00:54;2.10;99.90
20319;DHT22;10317;47.254;11.314;2022-12-05T22:03:20;2.10;99.90
20319;DHT22;10317;47.254;11.314;2022-12-05T22:05:46;2.10;99.90
20319;DHT22;10317;47.254;11.314;2022-12-05T22:08:12;2.10;99.90
20319;DHT22;10317;47.254;11.314;2022-12-05T22:10:37;2.10;99.90
20319;DHT22;10317;47.254;11.314;2022-12-05T22:13:03;2.10;99.90
20319;DHT22;10317;47.254;11.314;2022-12-05T22:15:29;2.10;99.90
20319;DHT22;10317;47.254;11.314;2022-12-05T22:17:55;2.10;99.90
20319;DHT22;10317;47.254;11.314;2022-12-05T22:20:21;2.10;99.90
20319;DHT22;10317;47.254;11.314;2022-12-05T22:22:46;2.10;99.90
20319;DHT22;10317;47.254;11.314;2022-12-05T22:25:12;2.10;99.90
20319;DHT22;10317;47.254;11.314;2022-12-05T22:27:38;2.00;99.90
20319;DHT22;10317;47.254;11.314;2022-12-05T22:30:07;2.00;99.90
20319;DHT22;10317;47.254;11.314;2022-12-05T22:32:33;2.00;99.90
20319;DHT22;10317;47.254;11.314;2022-12-05T22:34:59;1.90;99.90
20319;DHT22;10317;47.254;11.314;2022-12-05T22:37:24;1.90;99.90
20319;DHT22;10317;47.254;11.314;2022-12-05T22:39:53;1.90;99.90
20319;DHT22;10317;47.254;11.314;2022-12-05T22:42:19;1.90;99.90
20319;DHT22;10317;47.254;11.314;2022-12-05T22:44:44;1.90;99.90
20319;DHT22;10317;47.254;11.314;2022-12-05T22:47:10;2.00;99.90
20319;DHT22;10317;47.254;11.314;2022-12-05T22:49:35;1.90;99.90
20319;DHT22;10317;47.254;11.314;2022-12-05T22:52:01;1.90;99.90
20319;DHT22;10317;47.254;11.314;2022-12-05T22:54:27;1.90;99.90
20319;DHT22;10317;47.254;11.314;2022-12-05T22:56:53;1.90;99.90
20319;DHT22;10317;47.254;11.314;2022-12-05T22:59:18;1.80;99.90
20319;DHT22;10317;47.254;11.314;2022-12-05T23:01:44;1.80;99.90